sensor_id;sensor_type;location;lat;lon;timestamp;temperature;humidity
12771;DHT22;6449;47.666;9.160;2023-08-06T00:03:14;15.80;99.90
12771;DHT22;6449;47.666;9.160;2023-08-06T00:08:07;15.80;99.90
12771;DHT22;6449;47.666;9.160;2023-08-06T00:13:02;15.80;99.90
12771;DHT22;6449;47.666;9.160;2023-08-06T00:17:55;15.80;99.90
12771;DHT22;6449;47.666;9.160;2023-08-06T00:22:49;15.80;99.90
12771;DHT22;6449;47.666;9.160;2023-08-06T00:27:42;15.70;99.90
12771;DHT22;6449;47.666;9.160;2023-08-06T00:32:37;15.70;99.90
12771;DHT22;6449;47.666;9.160;2023-08-06T00:37:30;15.70;99.90
12771;DHT22;6449;47.666;9.160;2023-08-06T00:42:24;15.60;99.90
12771;DHT22;6449;47.666;9.160;2023-08-06T00:47:17;15.60;99.90
12771;DHT22;6449;47.666;9.160;2023-08-06T00:52:12;15.50;99.90
12771;DHT22;6449;47.666;9.160;2023-08-06T00:57:07;15.40;99.90
12771;DHT22;6449;47.666;9.160;2023-08-06T01:02:02;15.30;99.90
12771;DHT22;6449;47.666;9.160;2023-08-06T01:07:03;15.40;99.90
12771;DHT22;6449;47.666;9.160;2023-08-06T01:12:14;15.40;99.90
12771;DHT22;6449;47.666;9.160;2023-08-06T01:17:16;15.40;99.90
12771;DHT22;6449;47.666;9.160;2023-08-06T01:22:11;15.30;99.90
12771;DHT22;6449;47.666;9.160;2023-08-06T01:27:08;15.20;99.90
12771;DHT22;6449;47.666;9.160;2023-08-06T01:32:08;15.20;99.90
12771;DHT22;6449;47.666;9.160;2023-08-06T01:37:05;15.20;99.90
12771;DHT22;6449;47.666;9.160;2023-08-06T01:42:00;15.10;99.90
12771;DHT22;6449;47.666;9.160;2023-08-06T01:46:53;15.00;99.90
12771;DHT22;6449;47.666;9.160;2023-08-06T01:51:47;14.90;99.90
12771;DHT22;6449;47.666;9.160;2023-08-06T01:56:41;14.90;99.90
12771;DHT22;6449;47.666;9.160;2023-08-06T02:01:35;14.90;99.90
12771;DHT22;6449;47.666;9.160;2023-08-06T02:06:29;14.90;99.90
12771;DHT22;6449;47.666;9.160;2023-08-06T02:11:22;14.80;99.90
12771;DHT22;6449;47.666;9.160;2023-08-06T02:16:15;14.80;99.90
12771;DHT22;6449;47.666;9.160;2023-08-06T02:21:10;14.80;99.90
12771;DHT22;6449;47.666;9.160;2023-08-06T02:26:04;14.90;99.90
12771;DHT22;6449;47.666;9.160;2023-08-06T02:30:58;15.00;99.90
12771;DHT22;6449;47.666;9.160;2023-08-06T02:35:54;15.00;99.90
12771;DHT22;6449;47.666;9.160;2023-08-06T02:40:53;14.90;99.90
12771;DHT22;6449;47.666;9.160;2023-08-06T02:45:46;14.90;99.90
12771;DHT22;6449;47.666;9.160;2023-08-06T02:50:40;14.80;99.90
12771;DHT22;6449;47.666;9.160;2023-08-06T02:55:34;14.70;99.90
12771;DHT22;6449;47.666;9.160;2023-08-06T03:00:29;14.60;99.90
12771;DHT22;6449;47.666;9.160;2023-08-06T03:05:23;14.60;99.90
12771;DHT22;6449;47.666;9.160;2023-08-06T03:10:16;14.50;99.90
12771;DHT22;6449;47.666;9.160;2023-08-06T03:15:10;14.60;99.90
12771;DHT22;6449;47.666;9.160;2023-08-06T03:20:06;14.60;99.90
12771;DHT22;6449;47.666;9.160;2023-08-06T03:25:03;14.60;99.90
12771;DHT22;6449;47.666;9.160;2023-08-06T03:29:57;14.60;99.90
12771;DHT22;6449;47.666;9.160;2023-08-06T03:34:52;14.50;99.90
12771;DHT22;6449;47.666;9.160;2023-08-06T03:39:47;14.40;99.90
12771;DHT22;6449;47.666;9.160;2023-08-06T03:44:40;14.40;99.90
12771;DHT22;6449;47.666;9.160;2023-08-06T03:49:34;14.40;99.90
12771;DHT22;6449;47.666;9.160;2023-08-06T03:54:27;14.40;99.90
12771;DHT22;6449;47.666;9.160;2023-08-06T03:59:23;14.30;99.90
12771;DHT22;6449;47.666;9.160;2023-08-06T04:04:16;14.40;99.90
12771;DHT22;6449;47.666;9.160;2023-08-06T04:09:09;14.50;99.90
12771;DHT22;6449;47.666;9.160;2023-08-06T04:14:03;14.50;99.90
12771;DHT22;6449;47.666;9.160;2023-08-06T04:18:58;14.50;99.90
12771;DHT22;6449;47.666;9.160;2023-08-06T04:23:51;14.50;99.90
12771;DHT22;6449;47.666;9.160;2023-08-06T04:28:44;14.60;99.90
12771;DHT22;6449;47.666;9.160;2023-08-06T04:33:38;14.50;99.90
12771;DHT22;6449;47.666;9.160;2023-08-06T04:38:33;14.60;99.90
12771;DHT22;6449;47.666;9.160;2023-08-06T04:43:26;14.70;99.90
12771;DHT22;6449;47.666;9.160;2023-08-06T04:48:19;14.60;99.90
12771;DHT22;6449;47.666;9.160;2023-08-06T04:53:13;14.40;99.90
12771;DHT22;6449;47.666;9.160;2023-08-06T04:58:09;14.10;99.90
12771;DHT22;6449;47.666;9.160;2023-08-06T05:03:03;14.00;99.90
12771;DHT22;6449;47.666;9.160;2023-08-06T05:07:57;13.90;99.90
12771;DHT22;6449;47.666;9.160;2023-08-06T05:12:50;14.00;99.90
12771;DHT22;6449;47.666;9.160;2023-08-06T05:17:45;14.00;99.90
12771;DHT22;6449;47.666;9.160;2023-08-06T05:22:38;13.90;99.90
12771;DHT22;6449;47.666;9.160;2023-08-06T05:27:32;14.00;99.90
12771;DHT22;6449;47.666;9.160;2023-08-06T05:32:25;13.80;99.90
12771;DHT22;6449;47.666;9.160;2023-08-06T05:37:20;13.80;99.90
12771;DHT22;6449;47.666;9.160;2023-08-06T05:42:13;13.90;99.90
12771;DHT22;6449;47.666;9.160;2023-08-06T05:47:06;13.80;99.90
12771;DHT22;6449;47.666;9.160;2023-08-06T05:52:00;13.70;99.90
12771;DHT22;6449;47.666;9.160;2023-08-06T05:56:56;13.70;99.90
12771;DHT22;6449;47.666;9.160;2023-08-06T06:01:49;13.60;99.90
12771;DHT22;6449;47.666;9.160;2023-08-06T06:06:44;13.60;99.90
12771;DHT22;6449;47.666;9.160;2023-08-06T06:11:37;13.70;99.90
12771;DHT22;6449;47.666;9.160;2023-08-06T06:16:32;13.80;99.90
12771;DHT22;6449;47.666;9.160;2023-08-06T06:21:27;14.00;99.90
12771;DHT22;6449;47.666;9.160;2023-08-06T06:26:21;14.10;99.90
12771;DHT22;6449;47.666;9.160;2023-08-06T06:31:14;14.20;99.90
12771;DHT22;6449;47.666;9.160;2023-08-06T06:36:09;14.10;99.90
12771;DHT22;6449;47.666;9.160;2023-08-06T06:41:03;14.20;99.90
12771;DHT22;6449;47.666;9.160;2023-08-06T06:45:57;14.10;99.90
12771;DHT22;6449;47.666;9.160;2023-08-06T06:50:51;14.20;99.90
12771;DHT22;6449;47.666;9.160;2023-08-06T06:55:46;14.40;99.90
12771;DHT22;6449;47.666;9.160;2023-08-06T07:00:41;14.70;99.90
12771;DHT22;6449;47.666;9.160;2023-08-06T07:05:34;14.70;99.90
12771;DHT22;6449;47.666;9.160;2023-08-06T07:10:27;14.80;99.90
12771;DHT22;6449;47.666;9.160;2023-08-06T07:15:22;14.80;99.90
12771;DHT22;6449;47.666;9.160;2023-08-06T07:20:16;14.70;99.90
12771;DHT22;6449;47.666;9.160;2023-08-06T07:25:09;14.60;99.90
12771;DHT22;6449;47.666;9.160;2023-08-06T07:30:03;14.50;99.90
12771;DHT22;6449;47.666;9.160;2023-08-06T07:34:59;14.40;99.90
12771;DHT22;6449;47.666;9.160;2023-08-06T07:39:54;14.40;99.90
12771;DHT22;6449;47.666;9.160;2023-08-06T07:44:51;14.40;99.90
12771;DHT22;6449;47.666;9.160;2023-08-06T07:49:45;14.50;99.90
12771;DHT22;6449;47.666;9.160;2023-08-06T07:54:40;14.30;99.90
12771;DHT22;6449;47.666;9.160;2023-08-06T07:59:33;14.40;99.90
12771;DHT22;6449;47.666;9.160;2023-08-06T08:04:27;14.40;99.90
12771;DHT22;6449;47.666;9.160;2023-08-06T08:09:20;14.50;99.90
12771;DHT22;6449;47.666;9.160;2023-08-06T08:14:15;14.60;99.90
12771;DHT22;6449;47.666;9.160;2023-08-06T08:19:08;14.60;99.90
12771;DHT22;6449;47.666;9.160;2023-08-06T08:24:04;14.50;99.90
12771;DHT22;6449;47.666;9.160;2023-08-06T08:28:58;14.60;99.90
12771;DHT22;6449;47.666;9.160;2023-08-06T08:33:52;14.60;99.90
12771;DHT22;6449;47.666;9.160;2023-08-06T08:38:50;14.30;99.90
12771;DHT22;6449;47.666;9.160;2023-08-06T08:43:47;14.10;99.90
12771;DHT22;6449;47.666;9.160;2023-08-06T08:48:42;14.20;99.90
12771;DHT22;6449;47.666;9.160;2023-08-06T08:53:40;14.20;99.90
12771;DHT22;6449;47.666;9.160;2023-08-06T08:58:34;14.20;99.90
12771;DHT22;6449;47.666;9.160;2023-08-06T09:03:31;14.30;99.90
12771;DHT22;6449;47.666;9.160;2023-08-06T09:08:30;14.30;99.90
12771;DHT22;6449;47.666;9.160;2023-08-06T09:13:29;14.30;99.90
12771;DHT22;6449;47.666;9.160;2023-08-06T09:18:26;14.40;99.90
12771;DHT22;6449;47.666;9.160;2023-08-06T09:23:20;14.50;99.90
12771;DHT22;6449;47.666;9.160;2023-08-06T09:28:20;14.60;99.90
12771;DHT22;6449;47.666;9.160;2023-08-06T09:33:18;14.70;99.90
12771;DHT22;6449;47.666;9.160;2023-08-06T09:38:12;14.80;99.90
12771;DHT22;6449;47.666;9.160;2023-08-06T09:43:06;14.70;99.90
12771;DHT22;6449;47.666;9.160;2023-08-06T09:48:01;14.70;99.90
12771;DHT22;6449;47.666;9.160;2023-08-06T09:52:58;14.70;99.90
12771;DHT22;6449;47.666;9.160;2023-08-06T09:57:53;14.60;99.90
12771;DHT22;6449;47.666;9.160;2023-08-06T10:02:47;14.70;99.90
12771;DHT22;6449;47.666;9.160;2023-08-06T10:07:42;14.90;99.90
12771;DHT22;6449;47.666;9.160;2023-08-06T10:12:41;15.40;99.90
12771;DHT22;6449;47.666;9.160;2023-08-06T10:17:40;15.70;99.90
12771;DHT22;6449;47.666;9.160;2023-08-06T10:22:42;16.00;99.90
12771;DHT22;6449;47.666;9.160;2023-08-06T10:27:53;16.10;99.90
12771;DHT22;6449;47.666;9.160;2023-08-06T10:32:48;15.90;99.90
12771;DHT22;6449;47.666;9.160;2023-08-06T10:37:45;15.50;99.90
12771;DHT22;6449;47.666;9.160;2023-08-06T10:42:41;15.20;99.90
12771;DHT22;6449;47.666;9.160;2023-08-06T10:47:38;15.00;99.90
12771;DHT22;6449;47.666;9.160;2023-08-06T10:52:35;14.80;99.90
12771;DHT22;6449;47.666;9.160;2023-08-06T10:57:28;14.90;99.90
12771;DHT22;6449;47.666;9.160;2023-08-06T11:02:23;15.10;99.90
12771;DHT22;6449;47.666;9.160;2023-08-06T11:07:16;15.30;99.90
12771;DHT22;6449;47.666;9.160;2023-08-06T11:12:18;15.50;99.90
12771;DHT22;6449;47.666;9.160;2023-08-06T11:17:12;15.60;99.90
12771;DHT22;6449;47.666;9.160;2023-08-06T11:22:06;15.70;99.90
12771;DHT22;6449;47.666;9.160;2023-08-06T11:27:00;15.90;99.90
12771;DHT22;6449;47.666;9.160;2023-08-06T11:31:53;15.90;99.90
12771;DHT22;6449;47.666;9.160;2023-08-06T11:36:57;15.90;99.90
12771;DHT22;6449;47.666;9.160;2023-08-06T11:41:52;16.00;99.90
12771;DHT22;6449;47.666;9.160;2023-08-06T11:46:53;16.10;99.90
12771;DHT22;6449;47.666;9.160;2023-08-06T11:51:48;16.10;99.90
12771;DHT22;6449;47.666;9.160;2023-08-06T11:56:42;16.20;99.90
12771;DHT22;6449;47.666;9.160;2023-08-06T12:01:38;16.10;99.90
12771;DHT22;6449;47.666;9.160;2023-08-06T12:06:41;16.00;99.90
12771;DHT22;6449;47.666;9.160;2023-08-06T12:11:35;15.80;99.90
12771;DHT22;6449;47.666;9.160;2023-08-06T12:16:29;15.70;99.90
12771;DHT22;6449;47.666;9.160;2023-08-06T12:21:24;15.60;99.90
12771;DHT22;6449;47.666;9.160;2023-08-06T12:26:17;15.70;99.90
12771;DHT22;6449;47.666;9.160;2023-08-06T12:31:11;15.80;99.90
12771;DHT22;6449;47.666;9.160;2023-08-06T12:36:04;15.80;99.90
12771;DHT22;6449;47.666;9.160;2023-08-06T12:40:59;15.80;99.90
12771;DHT22;6449;47.666;9.160;2023-08-06T12:45:52;15.80;99.90
12771;DHT22;6449;47.666;9.160;2023-08-06T12:50:46;15.80;99.90
12771;DHT22;6449;47.666;9.160;2023-08-06T12:55:41;15.90;99.90
12771;DHT22;6449;47.666;9.160;2023-08-06T13:00:36;15.90;99.90
12771;DHT22;6449;47.666;9.160;2023-08-06T13:05:29;16.00;99.90
12771;DHT22;6449;47.666;9.160;2023-08-06T13:10:23;16.10;99.90
12771;DHT22;6449;47.666;9.160;2023-08-06T13:15:17;16.00;99.90
12771;DHT22;6449;47.666;9.160;2023-08-06T13:20:14;16.10;99.90
12771;DHT22;6449;47.666;9.160;2023-08-06T13:25:11;16.10;99.90
12771;DHT22;6449;47.666;9.160;2023-08-06T13:30:07;16.00;99.90
12771;DHT22;6449;47.666;9.160;2023-08-06T13:35:02;16.00;99.90
12771;DHT22;6449;47.666;9.160;2023-08-06T13:40:00;16.10;99.90
12771;DHT22;6449;47.666;9.160;2023-08-06T13:44:58;16.10;99.90
12771;DHT22;6449;47.666;9.160;2023-08-06T13:49:55;16.30;99.90
12771;DHT22;6449;47.666;9.160;2023-08-06T13:54:48;16.30;99.90
12771;DHT22;6449;47.666;9.160;2023-08-06T13:59:43;16.50;99.90
12771;DHT22;6449;47.666;9.160;2023-08-06T14:04:37;16.70;99.90
12771;DHT22;6449;47.666;9.160;2023-08-06T14:09:31;16.70;99.90
12771;DHT22;6449;47.666;9.160;2023-08-06T14:14:26;16.70;99.90
12771;DHT22;6449;47.666;9.160;2023-08-06T14:19:20;16.80;99.90
12771;DHT22;6449;47.666;9.160;2023-08-06T14:24:17;16.80;99.90
12771;DHT22;6449;47.666;9.160;2023-08-06T14:29:10;16.80;99.90
12771;DHT22;6449;47.666;9.160;2023-08-06T14:34:05;16.90;99.90
12771;DHT22;6449;47.666;9.160;2023-08-06T14:39:01;16.90;99.90
12771;DHT22;6449;47.666;9.160;2023-08-06T14:43:55;17.10;99.90
12771;DHT22;6449;47.666;9.160;2023-08-06T14:48:48;17.30;99.90
12771;DHT22;6449;47.666;9.160;2023-08-06T14:53:42;17.20;99.90
12771;DHT22;6449;47.666;9.160;2023-08-06T14:58:36;17.10;99.90
12771;DHT22;6449;47.666;9.160;2023-08-06T15:03:31;17.00;99.90
12771;DHT22;6449;47.666;9.160;2023-08-06T15:08:28;16.80;99.90
12771;DHT22;6449;47.666;9.160;2023-08-06T15:13:21;16.70;99.90
12771;DHT22;6449;47.666;9.160;2023-08-06T15:18:16;16.80;99.90
12771;DHT22;6449;47.666;9.160;2023-08-06T15:23:11;16.80;99.90
12771;DHT22;6449;47.666;9.160;2023-08-06T15:28:04;16.90;99.90
12771;DHT22;6449;47.666;9.160;2023-08-06T15:32:59;17.00;99.90
12771;DHT22;6449;47.666;9.160;2023-08-06T15:37:54;17.10;99.90
12771;DHT22;6449;47.666;9.160;2023-08-06T15:42:48;17.20;99.90
12771;DHT22;6449;47.666;9.160;2023-08-06T15:48:12;17.20;99.90
12771;DHT22;6449;47.666;9.160;2023-08-06T15:53:11;17.40;99.90
12771;DHT22;6449;47.666;9.160;2023-08-06T15:58:04;17.30;99.90
12771;DHT22;6449;47.666;9.160;2023-08-06T16:02:58;17.10;99.90
12771;DHT22;6449;47.666;9.160;2023-08-06T16:07:51;16.80;99.90
12771;DHT22;6449;47.666;9.160;2023-08-06T16:12:46;16.70;99.90
12771;DHT22;6449;47.666;9.160;2023-08-06T16:17:39;16.30;99.90
12771;DHT22;6449;47.666;9.160;2023-08-06T16:22:33;15.50;99.90
12771;DHT22;6449;47.666;9.160;2023-08-06T16:27:26;15.20;99.90
12771;DHT22;6449;47.666;9.160;2023-08-06T16:32:21;15.10;99.90
12771;DHT22;6449;47.666;9.160;2023-08-06T16:37:14;15.20;99.90
12771;DHT22;6449;47.666;9.160;2023-08-06T16:42:07;15.30;99.90
12771;DHT22;6449;47.666;9.160;2023-08-06T16:47:01;15.40;99.90
12771;DHT22;6449;47.666;9.160;2023-08-06T16:51:56;15.40;99.90
12771;DHT22;6449;47.666;9.160;2023-08-06T16:56:50;15.20;99.90
12771;DHT22;6449;47.666;9.160;2023-08-06T17:01:44;15.20;99.90
12771;DHT22;6449;47.666;9.160;2023-08-06T17:06:37;15.20;99.90
12771;DHT22;6449;47.666;9.160;2023-08-06T17:11:32;15.10;99.90
12771;DHT22;6449;47.666;9.160;2023-08-06T17:16:25;15.20;99.90
12771;DHT22;6449;47.666;9.160;2023-08-06T17:21:19;15.30;99.90
12771;DHT22;6449;47.666;9.160;2023-08-06T17:26:12;15.20;99.90
12771;DHT22;6449;47.666;9.160;2023-08-06T17:31:07;15.20;99.90
12771;DHT22;6449;47.666;9.160;2023-08-06T17:36:00;15.30;99.90
12771;DHT22;6449;47.666;9.160;2023-08-06T17:40:54;15.20;99.90
12771;DHT22;6449;47.666;9.160;2023-08-06T17:45:49;15.20;99.90
12771;DHT22;6449;47.666;9.160;2023-08-06T17:50:44;15.10;99.90
12771;DHT22;6449;47.666;9.160;2023-08-06T17:55:38;15.10;99.90
12771;DHT22;6449;47.666;9.160;2023-08-06T18:00:32;15.00;99.90
12771;DHT22;6449;47.666;9.160;2023-08-06T18:05:25;14.90;99.90
12771;DHT22;6449;47.666;9.160;2023-08-06T18:10:24;14.80;99.90
12771;DHT22;6449;47.666;9.160;2023-08-06T18:15:17;14.70;99.90
12771;DHT22;6449;47.666;9.160;2023-08-06T18:20:11;14.80;99.90
12771;DHT22;6449;47.666;9.160;2023-08-06T18:25:05;14.90;99.90
12771;DHT22;6449;47.666;9.160;2023-08-06T18:30:01;14.90;99.90
12771;DHT22;6449;47.666;9.160;2023-08-06T18:34:55;14.90;99.90
12771;DHT22;6449;47.666;9.160;2023-08-06T18:39:49;14.90;99.90
12771;DHT22;6449;47.666;9.160;2023-08-06T18:44:42;14.80;99.90
12771;DHT22;6449;47.666;9.160;2023-08-06T18:49:37;14.80;99.90
12771;DHT22;6449;47.666;9.160;2023-08-06T18:54:33;14.80;99.90
12771;DHT22;6449;47.666;9.160;2023-08-06T18:59:29;14.80;99.90
12771;DHT22;6449;47.666;9.160;2023-08-06T19:04:23;14.70;99.90
12771;DHT22;6449;47.666;9.160;2023-08-06T19:09:20;14.60;99.90
12771;DHT22;6449;47.666;9.160;2023-08-06T19:14:14;14.60;99.90
12771;DHT22;6449;47.666;9.160;2023-08-06T19:19:08;14.60;99.90
12771;DHT22;6449;47.666;9.160;2023-08-06T19:24:01;14.60;99.90
12771;DHT22;6449;47.666;9.160;2023-08-06T19:28:56;14.50;99.90
12771;DHT22;6449;47.666;9.160;2023-08-06T19:33:50;14.40;99.90
12771;DHT22;6449;47.666;9.160;2023-08-06T19:38:44;14.40;99.90
12771;DHT22;6449;47.666;9.160;2023-08-06T19:43:37;14.20;99.90
12771;DHT22;6449;47.666;9.160;2023-08-06T19:48:34;14.10;99.90
12771;DHT22;6449;47.666;9.160;2023-08-06T19:53:27;14.20;99.90
12771;DHT22;6449;47.666;9.160;2023-08-06T19:58:26;14.20;99.90
12771;DHT22;6449;47.666;9.160;2023-08-06T20:03:20;14.20;99.90
12771;DHT22;6449;47.666;9.160;2023-08-06T20:08:15;14.20;99.90
12771;DHT22;6449;47.666;9.160;2023-08-06T20:13:08;14.10;99.90
12771;DHT22;6449;47.666;9.160;2023-08-06T20:18:02;14.10;99.90
12771;DHT22;6449;47.666;9.160;2023-08-06T20:22:56;14.20;99.90
12771;DHT22;6449;47.666;9.160;2023-08-06T20:27:53;14.20;99.90
12771;DHT22;6449;47.666;9.160;2023-08-06T20:32:46;14.10;99.90
12771;DHT22;6449;47.666;9.160;2023-08-06T20:37:40;14.10;99.90
12771;DHT22;6449;47.666;9.160;2023-08-06T20:42:35;14.10;99.90
12771;DHT22;6449;47.666;9.160;2023-08-06T20:47:30;14.10;99.90
12771;DHT22;6449;47.666;9.160;2023-08-06T20:52:31;14.10;99.90
12771;DHT22;6449;47.666;9.160;2023-08-06T20:57:24;14.20;99.90
12771;DHT22;6449;47.666;9.160;2023-08-06T21:02:17;14.00;99.90
12771;DHT22;6449;47.666;9.160;2023-08-06T21:07:15;13.90;99.90
12771;DHT22;6449;47.666;9.160;2023-08-06T21:12:08;13.90;99.90
12771;DHT22;6449;47.666;9.160;2023-08-06T21:17:02;13.80;99.90
12771;DHT22;6449;47.666;9.160;2023-08-06T21:21:55;13.90;99.90
12771;DHT22;6449;47.666;9.160;2023-08-06T21:26:50;14.00;99.90
12771;DHT22;6449;47.666;9.160;2023-08-06T21:31:43;14.00;99.90
12771;DHT22;6449;47.666;9.160;2023-08-06T21:36:36;13.90;99.90
12771;DHT22;6449;47.666;9.160;2023-08-06T21:41:30;13.90;99.90
12771;DHT22;6449;47.666;9.160;2023-08-06T21:46:24;13.90;99.90
12771;DHT22;6449;47.666;9.160;2023-08-06T21:51:19;13.80;99.90
12771;DHT22;6449;47.666;9.160;2023-08-06T21:56:14;13.90;99.90
12771;DHT22;6449;47.666;9.160;2023-08-06T22:01:09;13.80;99.90
12771;DHT22;6449;47.666;9.160;2023-08-06T22:06:06;13.80;99.90
12771;DHT22;6449;47.666;9.160;2023-08-06T22:11:00;13.70;99.90
12771;DHT22;6449;47.666;9.160;2023-08-06T22:15:55;13.70;99.90
12771;DHT22;6449;47.666;9.160;2023-08-06T22:20:50;13.70;99.90
12771;DHT22;6449;47.666;9.160;2023-08-06T22:25:45;13.70;99.90
12771;DHT22;6449;47.666;9.160;2023-08-06T22:30:38;13.70;99.90
12771;DHT22;6449;47.666;9.160;2023-08-06T22:35:32;13.60;99.90
12771;DHT22;6449;47.666;9.160;2023-08-06T22:40:25;13.60;99.90
12771;DHT22;6449;47.666;9.160;2023-08-06T22:45:20;13.60;99.90
12771;DHT22;6449;47.666;9.160;2023-08-06T22:50:13;13.60;99.90
12771;DHT22;6449;47.666;9.160;2023-08-06T22:55:07;13.60;99.90
12771;DHT22;6449;47.666;9.160;2023-08-06T23:00:15;13.60;99.90
12771;DHT22;6449;47.666;9.160;2023-08-06T23:05:10;13.40;99.90
12771;DHT22;6449;47.666;9.160;2023-08-06T23:10:04;13.50;99.90
12771;DHT22;6449;47.666;9.160;2023-08-06T23:14:59;13.50;99.90
12771;DHT22;6449;47.666;9.160;2023-08-06T23:19:52;13.50;99.90
12771;DHT22;6449;47.666;9.160;2023-08-06T23:24:49;13.40;99.90
12771;DHT22;6449;47.666;9.160;2023-08-06T23:29:42;13.40;99.90
12771;DHT22;6449;47.666;9.160;2023-08-06T23:34:36;13.20;99.90
12771;DHT22;6449;47.666;9.160;2023-08-06T23:39:44;13.20;99.90
12771;DHT22;6449;47.666;9.160;2023-08-06T23:44:39;13.30;99.90
12771;DHT22;6449;47.666;9.160;2023-08-06T23:49:33;13.20;99.90
12771;DHT22;6449;47.666;9.160;2023-08-06T23:54:26;13.20;99.90
12771;DHT22;6449;47.666;9.160;2023-08-06T23:59:19;13.20;99.90
